^^
Meteo Knjazevac Station Historical Data
Daily Summary for January 20, 2021 Units:  English    Metric   Both
Daily Weekly Monthly Yearly Custom
  High: Low: Average:
Temperature: 79.1 °F 54.7 °F 60.8 °F
Dew Point: 66.7 °F 51.5 °F 57.6 °F
Humidity: 99% 63% 90%
Wind Speed: 9mph 0mph 3.5mph
Wind Gust: 19mph - -
Wind- - SW
Pressure: 30.20 in 29.92 in -
Precipitation: 0.08 in    
Historical Graphs
 
 
Tabular Data for January 20, 2021
Time Temperature Dew Point Pressure Wind Wind Speed Wind Gust Humidity Rainfall Rate (Hourly) solar Conditions
00:00 61.2 °F 58.2 °F 30.00 in SSE 2 mph 7 mph 90% 0.00 in 0 W/m2
00:10 61.3 °F 58.3 °F 30.00 in SE 2 mph 11 mph 90% 0.00 in 0 W/m2
00:20 61.2 °F 58.2 °F 29.99 in ENE 2 mph 5 mph 90% 0.00 in 0 W/m2
00:30 61 °F 58.3 °F 30.00 in SE 3 mph 7 mph 91% 0.00 in 0 W/m2
00:40 60.4 °F 57.7 °F 30.00 in SW 5 mph 7 mph 91% 0.00 in 0 W/m2
00:50 59.5 °F 57.5 °F 30.00 in WSW 3 mph 7 mph 93% 0.00 in 0 W/m2
01:00 59.3 °F 57.3 °F 30.00 in WSW 2 mph 5 mph 93% 0.00 in 0 W/m2
01:10 59 °F 57.3 °F 29.99 in WSW 1 mph 3 mph 94% 0.00 in 0 W/m2
01:20 58.8 °F 57.1 °F 30.00 in West 2 mph 3 mph 94% 0.00 in 0 W/m2
01:30 58.5 °F 56.7 °F 29.99 in Calm   3 mph 94% 0.00 in 0 W/m2
01:40 58.4 °F 56.7 °F 29.99 in NW 2 mph 4 mph 94% 0.00 in 0 W/m2
01:50 57.9 °F 56.5 °F 29.99 in West 3 mph 4 mph 95% 0.00 in 0 W/m2
02:00 57.6 °F 56.1 °F 29.99 in WNW 1 mph 4 mph 95% 0.00 in 0 W/m2
02:10 57.6 °F 56.1 °F 29.99 in West 2 mph 4 mph 95% 0.00 in 0 W/m2
02:20 57.2 °F 55.8 °F 29.98 in West 2 mph 4 mph 95% 0.00 in 0 W/m2
02:30 56.8 °F 55.4 °F 29.98 in West 3 mph 4 mph 95% 0.00 in 0 W/m2
02:40 56.8 °F 55.7 °F 29.98 in West 2 mph 5 mph 96% 0.00 in 0 W/m2
02:50 56.5 °F 55.4 °F 29.97 in West 3 mph 6 mph 96% 0.00 in 0 W/m2
03:00 56.3 °F 55.2 °F 29.97 in WNW 1 mph 3 mph 96% 0.00 in 0 W/m2
03:10 56.1 °F 55 °F 29.97 in WSW 1 mph 3 mph 96% 0.00 in 0 W/m2
03:20 55.8 °F 54.6 °F 29.97 in West 2 mph 6 mph 96% 0.00 in 0 W/m2
03:30 55.6 °F 54.7 °F 29.97 in West 3 mph 6 mph 97% 0.00 in 0 W/m2
03:40 55.4 °F 54.8 °F 29.97 in West 3 mph 5 mph 98% 0.00 in 0 W/m2
03:50 55.2 °F 54.7 °F 29.97 in West 2 mph 5 mph 98% 0.00 in 0 W/m2
04:00 55 °F 54.5 °F 29.97 in WNW 2 mph 3 mph 98% 0.00 in 0 W/m2
04:10 55.2 °F 54.9 °F 29.96 in WNW 2 mph 6 mph 99% 0.00 in 0 W/m2
04:20 55.2 °F 54.9 °F 29.96 in WSW 2 mph 5 mph 99% 0.00 in 0 W/m2
04:30 55 °F 54.8 °F 29.96 in West 3 mph 7 mph 99% 0.00 in 0 W/m2
04:40 55 °F 54.8 °F 29.96 in West 3 mph 6 mph 99% 0.00 in 0 W/m2
04:50 55 °F 54.8 °F 29.96 in WSW 3 mph 5 mph 99% 0.00 in 0 W/m2
05:00 54.9 °F 54.6 °F 29.96 in WSW 3 mph 5 mph 99% 0.00 in 0 W/m2
05:10 54.7 °F 54.4 °F 29.96 in West 2 mph 5 mph 99% 0.00 in 0 W/m2
05:20 54.9 °F 54.6 °F 29.96 in WNW 3 mph 7 mph 99% 0.00 in 0 W/m2
05:30 55.2 °F 54.9 °F 29.96 in West 2 mph 5 mph 99% 0.00 in 0 W/m2
05:40 55.2 °F 54.9 °F 29.96 in SW 2 mph 3 mph 99% 0.00 in 0 W/m2
05:50 55 °F 54.8 °F 29.96 in WSW 2 mph 5 mph 99% 0.00 in 0 W/m2
06:00 55 °F 54.8 °F 29.96 in West 2 mph 5 mph 99% 0.00 in 0 W/m2
06:10 55 °F 54.8 °F 29.97 in West 3 mph 5 mph 99% 0.00 in 0 W/m2
06:20 55 °F 54.7 °F 29.97 in West 2 mph 5 mph 99% 0.00 in 5 W/m2
06:30 54.9 °F 54.6 °F 29.97 in WSW 2 mph 4 mph 99% 0.00 in 13 W/m2
06:40 54.9 °F 54.6 °F 29.97 in WSW 1 mph 3 mph 99% 0.00 in 22 W/m2
06:50 55 °F 54.8 °F 29.97 in West 1 mph 3 mph 99% 0.00 in 40 W/m2
07:00 55.4 °F 55.1 °F 29.97 in NW 1 mph 3 mph 99% 0.00 in 52 W/m2
07:10 55.8 °F 55.6 °F 29.97 in NW 1 mph 2 mph 99% 0.00 in 59 W/m2
07:20 55.8 °F 55.6 °F 29.97 in Calm   2 mph 99% 0.00 in 51 W/m2
07:30 56.1 °F 55.8 °F 29.97 in Calm   3 mph 99% 0.00 in 60 W/m2
07:40 56.3 °F 56 °F 29.97 in NW 1 mph 3 mph 99% 0.00 in 143 W/m2
07:50 56.7 °F 56.4 °F 29.96 in WSW 2 mph 4 mph 99% 0.00 in 76 W/m2
08:00 57 °F 56.7 °F 29.97 in WSW 3 mph 7 mph 99% 0.00 in 121 W/m2
08:10 57.6 °F 57.3 °F 29.96 in WSW 2 mph 5 mph 99% 0.00 in 115 W/m2
08:20 58.1 °F 57.8 °F 29.96 in SW 2 mph 3 mph 99% 0.00 in 143 W/m2
08:30 58.6 °F 58.4 °F 29.96 in WSW 1 mph 3 mph 99% 0.00 in 221 W/m2
08:40 59.8 °F 59.5 °F 29.96 in West 1 mph 4 mph 99% 0.00 in 378 W/m2
08:50 61.6 °F 61.3 °F 29.96 in West 2 mph 5 mph 99% 0.00 in 407 W/m2
09:00 63.4 °F 62.8 °F 29.95 in West 2 mph 3 mph 98% 0.00 in 428 W/m2
09:10 64.8 °F 63.7 °F 29.96 in West 1 mph 5 mph 96% 0.00 in 461 W/m2
09:20 66.6 °F 64.9 °F 29.95 in SW 1 mph 4 mph 94% 0.00 in 487 W/m2
09:30 68.5 °F 64.8 °F 29.95 in SSE 1 mph 7 mph 88% 0.00 in 512 W/m2
09:40 70.1 °F 65 °F 29.95 in SSE 3 mph 7 mph 84% 0.00 in 537 W/m2
09:50 71.5 °F 64.6 °F 29.95 in SE 2 mph 9 mph 79% 0.00 in 227 W/m2
10:00 72.7 °F 65.4 °F 29.95 in SSE 2 mph 7 mph 78% 0.00 in 403 W/m2
10:10 74.2 °F 65.8 °F 29.95 in SSE 3 mph 7 mph 75% 0.00 in 602 W/m2
10:20 74.7 °F 65.4 °F 29.95 in South 2 mph 9 mph 73% 0.00 in 144 W/m2
10:30 74.1 °F 64.5 °F 29.95 in SW 6 mph 10 mph 72% 0.00 in 173 W/m2
10:40 73.8 °F 64.2 °F 29.95 in SW 6 mph 10 mph 72% 0.00 in 202 W/m2
10:50 73.6 °F 64 °F 29.95 in SW 5 mph 10 mph 72% 0.00 in 155 W/m2
11:00 73.6 °F 64 °F 29.94 in SW 3 mph 10 mph 72% 0.00 in 110 W/m2
11:10 73.6 °F 64.4 °F 29.94 in WSW 1 mph 6 mph 73% 0.00 in 141 W/m2
11:20 73.7 °F 64.9 °F 29.94 in North 1 mph 5 mph 74% 0.00 in 445 W/m2
11:30 74.3 °F 65.1 °F 29.94 in NNE 2 mph 6 mph 73% 0.00 in 318 W/m2
11:40 75.2 °F 65.6 °F 29.93 in NNE 6 mph 7 mph 72% 0.00 in 251 W/m2
11:50 76.4 °F 65.9 °F 29.93 in NNE 6 mph 12 mph 70% 0.00 in 731 W/m2
12:00 78.2 °F 66.7 °F 29.93 in NE 5 mph 12 mph 68% 0.00 in 735 W/m2
12:10 79.1 °F 65.4 °F 29.93 in SE 3 mph 9 mph 63% 0.00 in 369 W/m2
12:20 77.9 °F 64.3 °F 29.92 in East 6 mph 16 mph 63% 0.00 in 104 W/m2
13:00 74.1 °F 62.4 °F 29.94 in ENE 5 mph 12 mph 67% 0.00 in 172 W/m2
13:10 70.8 °F 62.5 °F 29.95 in NNE 7 mph 19 mph 75% 0.00 in 12 W/m2
13:20 68.1 °F 61.7 °F 29.97 in North 3 mph 18 mph 80% 0.02 in 32 W/m2
13:30 66.6 °F 61.3 °F 29.97 in North 8 mph 12 mph 83% 0.01 in 118 W/m2
13:40 65.5 °F 61.2 °F 29.98 in North 2 mph 10 mph 86% 0.00 in 59 W/m2
13:50 64.8 °F 61.1 °F 29.99 in NNW 1 mph 7 mph 88% 0.01 in 43 W/m2
14:00 64.2 °F 61.2 °F 29.99 in North 2 mph 13 mph 90% 0.02 in 40 W/m2
14:10 63.7 °F 61 °F 30.00 in NNW 1 mph 10 mph 91% 0.00 in 228 W/m2
14:20 63.7 °F 61 °F 30.00 in NNW 1 mph 8 mph 91% 0.00 in 204 W/m2
14:30 63.7 °F 61 °F 30.00 in NNW 1 mph 8 mph 91% 0.00 in 174 W/m2
14:40 63.7 °F 61.3 °F 30.00 in North 3 mph 6 mph 92% 0.00 in 226 W/m2
14:50 63.9 °F 61.2 °F 30.01 in Calm   6 mph 91% 0.00 in 142 W/m2
15:00 63.9 °F 60.9 °F 30.01 in NNE 1 mph 4 mph 90% 0.00 in 130 W/m2
15:10 63.7 °F 60.7 °F 30.01 in East 2 mph 3 mph 90% 0.00 in 65 W/m2
15:20 63.5 °F 60.8 °F 30.01 in SSE 3 mph 4 mph 91% 0.00 in 91 W/m2
15:30 63.3 °F 60.6 °F 30.02 in Calm   3 mph 91% 0.00 in 22 W/m2
15:40 63.3 °F 61.3 °F 30.02 in West 1 mph 2 mph 93% 0.00 in 43 W/m2
15:50 63.3 °F 61.3 °F 30.03 in WSW 2 mph 5 mph 93% 0.00 in 20 W/m2
16:00 63.1 °F 61.1 °F 30.03 in WSW 1 mph 4 mph 93% 0.00 in 22 W/m2
16:10 63.1 °F 61.4 °F 30.04 in SW 2 mph 3 mph 94% 0.00 in 45 W/m2
16:20 63.1 °F 59.8 °F 30.03 in WSW 9 mph 13 mph 89% 0.00 in 52 W/m2
16:30 63 °F 59.3 °F 30.04 in West 5 mph 12 mph 88% 0.00 in 56 W/m2
16:40 62.7 °F 58.4 °F 30.04 in WSW 6 mph 13 mph 86% 0.00 in 37 W/m2
16:50 62.6 °F 58.4 °F 30.04 in West 3 mph 13 mph 86% 0.00 in 41 W/m2
17:00 62.5 °F 58.2 °F 30.06 in West 7 mph 11 mph 86% 0.00 in 61 W/m2
17:10 62.2 °F 58 °F 30.06 in WNW 8 mph 14 mph 86% 0.00 in 26 W/m2
17:20 61.7 °F 57.1 °F 30.07 in West 5 mph 15 mph 85% 0.00 in 21 W/m2
17:30 61.2 °F 56.9 °F 30.08 in WSW 8 mph 13 mph 86% 0.00 in 20 W/m2
17:40 60.5 °F 56.9 °F 30.08 in West 7 mph 15 mph 88% 0.00 in 22 W/m2
17:50 59.9 °F 56.3 °F 30.08 in West 9 mph 14 mph 88% 0.00 in 20 W/m2
18:00 59.5 °F 56 °F 30.08 in West 8 mph 15 mph 88% 0.00 in 13 W/m2
18:10 59.4 °F 55.8 °F 30.08 in West 9 mph 16 mph 88% 0.00 in 10 W/m2
18:20 59.2 °F 55.6 °F 30.09 in West 9 mph 14 mph 88% 0.00 in 5 W/m2
18:30 59 °F 55.4 °F 30.10 in West 7 mph 14 mph 88% 0.00 in 1 W/m2
18:40 58.8 °F 55.3 °F 30.10 in West 6 mph 13 mph 88% 0.00 in 0 W/m2
18:50 58.6 °F 55.1 °F 30.11 in West 7 mph 13 mph 88% 0.00 in 0 W/m2
19:00 58.3 °F 55.1 °F 30.11 in WSW 7 mph 15 mph 89% 0.01 in 0 W/m2
19:10 57.9 °F 55 °F 30.12 in WSW 3 mph 12 mph 90% 0.01 in 0 W/m2
19:20 57.7 °F 54.8 °F 30.12 in SW 6 mph 8 mph 90% 0.00 in 0 W/m2
19:30 57.4 °F 54.8 °F 30.12 in WSW 6 mph 9 mph 91% 0.00 in 0 W/m2
19:40 57.4 °F 54.5 °F 30.13 in West 8 mph 15 mph 90% 0.00 in 0 W/m2
19:50 57.3 °F 54.3 °F 30.14 in WSW 6 mph 14 mph 90% 0.00 in 0 W/m2
20:00 57.2 °F 54.3 °F 30.14 in WSW 6 mph 12 mph 90% 0.00 in 0 W/m2
20:10 57 °F 54.1 °F 30.15 in WSW 7 mph 11 mph 90% 0.00 in 0 W/m2
20:20 56.8 °F 54.2 °F 30.15 in WSW 5 mph 12 mph 91% 0.00 in 0 W/m2
20:30 56.7 °F 54.1 °F 30.16 in WSW 7 mph 12 mph 91% 0.00 in 0 W/m2
20:40 56.5 °F 53.9 °F 30.17 in WSW 5 mph 11 mph 91% 0.00 in 0 W/m2
20:50 56.5 °F 53.9 °F 30.17 in SW 3 mph 8 mph 91% 0.00 in 0 W/m2
21:00 56.3 °F 53.7 °F 30.17 in WSW 5 mph 9 mph 91% 0.00 in 0 W/m2
21:10 56.3 °F 53.7 °F 30.17 in WSW 2 mph 8 mph 91% 0.00 in 0 W/m2
21:20 56.3 °F 53.4 °F 30.17 in SW 5 mph 7 mph 90% 0.00 in 0 W/m2
21:30 56.3 °F 53.4 °F 30.17 in SW 5 mph 8 mph 90% 0.00 in 0 W/m2
21:40 56.3 °F 53.1 °F 30.18 in SW 5 mph 8 mph 89% 0.00 in 0 W/m2
21:50 56.4 °F 53.2 °F 30.18 in WSW 2 mph 7 mph 89% 0.00 in 0 W/m2
22:00 56.3 °F 53.1 °F 30.18 in SW 3 mph 8 mph 89% 0.00 in 0 W/m2
22:10 56.3 °F 52.8 °F 30.19 in WSW 7 mph 12 mph 88% 0.00 in 0 W/m2
22:20 56.1 °F 52.9 °F 30.19 in WSW 5 mph 9 mph 89% 0.00 in 0 W/m2
22:30 56.1 °F 52.9 °F 30.19 in WSW 6 mph 10 mph 89% 0.00 in 0 W/m2
22:40 55.9 °F 51.8 °F 30.20 in WSW 7 mph 13 mph 86% 0.00 in 0 W/m2
22:50 55.8 °F 51.6 °F 30.20 in WSW 6 mph 13 mph 86% 0.00 in 0 W/m2
23:00 55.8 °F 51.6 °F 30.19 in WSW 6 mph 12 mph 86% 0.00 in 0 W/m2
23:10 55.6 °F 51.5 °F 30.20 in West 8 mph 12 mph 86% 0.00 in 0 W/m2
23:20 55.6 °F 51.5 °F 30.20 in West 6 mph 12 mph 86% 0.00 in 0 W/m2
23:30 55.6 °F 51.5 °F 30.20 in West 8 mph 13 mph 86% 0.00 in 0 W/m2
23:40 55.4 °F 51.9 °F 30.20 in West 6 mph 13 mph 88% 0.00 in 0 W/m2
23:50 55.2 °F 51.7 °F 30.20 in West 5 mph 8 mph 88% 0.00 in 0 W/m2
Knjazevac, Serbia
Compliments of Weather Underground - 2 mb